sensor_id;sensor_type;location;lat;lon;timestamp;temperature;humidity
12634;DHT22;6382;48.614;8.880;2023-06-24T00:02:03;13.60;99.90
12634;DHT22;6382;48.614;8.880;2023-06-24T00:04:30;13.20;99.90
12634;DHT22;6382;48.614;8.880;2023-06-24T00:06:57;15.70;99.90
12634;DHT22;6382;48.614;8.880;2023-06-24T00:09:26;14.40;99.90
12634;DHT22;6382;48.614;8.880;2023-06-24T00:11:54;13.10;99.90
12634;DHT22;6382;48.614;8.880;2023-06-24T00:14:21;14.30;99.90
12634;DHT22;6382;48.614;8.880;2023-06-24T00:16:50;14.20;99.90
12634;DHT22;6382;48.614;8.880;2023-06-24T00:19:22;15.60;99.90
12634;DHT22;6382;48.614;8.880;2023-06-24T00:21:49;13.00;99.90
12634;DHT22;6382;48.614;8.880;2023-06-24T00:24:18;15.10;99.90
12634;DHT22;6382;48.614;8.880;2023-06-24T00:26:46;13.50;99.90
12634;DHT22;6382;48.614;8.880;2023-06-24T00:29:13;15.50;99.90
12634;DHT22;6382;48.614;8.880;2023-06-24T00:31:40;15.20;99.90
12634;DHT22;6382;48.614;8.880;2023-06-24T00:34:07;13.30;99.90
12634;DHT22;6382;48.614;8.880;2023-06-24T00:36:34;13.50;99.90
12634;DHT22;6382;48.614;8.880;2023-06-24T00:39:06;13.60;99.90
12634;DHT22;6382;48.614;8.880;2023-06-24T00:41:33;14.20;99.90
12634;DHT22;6382;48.614;8.880;2023-06-24T00:44:01;14.40;99.90
12634;DHT22;6382;48.614;8.880;2023-06-24T00:46:28;12.70;99.90
12634;DHT22;6382;48.614;8.880;2023-06-24T00:48:55;12.70;99.90
12634;DHT22;6382;48.614;8.880;2023-06-24T00:51:22;13.00;99.90
12634;DHT22;6382;48.614;8.880;2023-06-24T00:54:00;13.20;99.90
12634;DHT22;6382;48.614;8.880;2023-06-24T00:56:33;14.50;99.90
12634;DHT22;6382;48.614;8.880;2023-06-24T00:59:02;12.70;99.90
12634;DHT22;6382;48.614;8.880;2023-06-24T01:01:32;13.80;99.90
12634;DHT22;6382;48.614;8.880;2023-06-24T01:04:00;12.60;99.90
12634;DHT22;6382;48.614;8.880;2023-06-24T01:06:28;13.30;99.90
12634;DHT22;6382;48.614;8.880;2023-06-24T01:08:56;13.50;99.90
12634;DHT22;6382;48.614;8.880;2023-06-24T01:11:23;12.60;99.90
12634;DHT22;6382;48.614;8.880;2023-06-24T01:13:52;14.10;99.90
12634;DHT22;6382;48.614;8.880;2023-06-24T01:16:22;12.70;99.90
12634;DHT22;6382;48.614;8.880;2023-06-24T01:18:52;13.60;99.90
12634;DHT22;6382;48.614;8.880;2023-06-24T01:26:49;12.70;99.90
12634;DHT22;6382;48.614;8.880;2023-06-24T01:32:07;12.90;99.90
12634;DHT22;6382;48.614;8.880;2023-06-24T01:34:35;12.90;99.90
12634;DHT22;6382;48.614;8.880;2023-06-24T01:37:22;13.30;99.90
12634;DHT22;6382;48.614;8.880;2023-06-24T01:39:54;12.80;99.90
12634;DHT22;6382;48.614;8.880;2023-06-24T01:42:22;14.20;99.90
12634;DHT22;6382;48.614;8.880;2023-06-24T01:44:49;12.70;99.90
12634;DHT22;6382;48.614;8.880;2023-06-24T01:47:20;14.80;99.90
12634;DHT22;6382;48.614;8.880;2023-06-24T01:49:48;12.70;99.90
12634;DHT22;6382;48.614;8.880;2023-06-24T01:52:16;14.20;99.90
12634;DHT22;6382;48.614;8.880;2023-06-24T01:54:44;14.00;99.90
12634;DHT22;6382;48.614;8.880;2023-06-24T01:57:12;14.90;99.90
12634;DHT22;6382;48.614;8.880;2023-06-24T01:59:39;14.60;99.90
12634;DHT22;6382;48.614;8.880;2023-06-24T02:02:07;14.50;99.90
12634;DHT22;6382;48.614;8.880;2023-06-24T02:04:35;13.30;99.90
12634;DHT22;6382;48.614;8.880;2023-06-24T02:07:02;13.90;99.90
12634;DHT22;6382;48.614;8.880;2023-06-24T02:09:30;12.40;99.90
12634;DHT22;6382;48.614;8.880;2023-06-24T02:11:58;12.20;99.90
12634;DHT22;6382;48.614;8.880;2023-06-24T02:14:26;13.50;99.90
12634;DHT22;6382;48.614;8.880;2023-06-24T02:16:53;12.80;99.90
12634;DHT22;6382;48.614;8.880;2023-06-24T02:19:27;11.80;99.90
12634;DHT22;6382;48.614;8.880;2023-06-24T02:21:56;11.80;99.90
12634;DHT22;6382;48.614;8.880;2023-06-24T02:24:23;11.80;99.90
12634;DHT22;6382;48.614;8.880;2023-06-24T02:26:50;13.00;99.90
12634;DHT22;6382;48.614;8.880;2023-06-24T02:29:17;12.10;99.90
12634;DHT22;6382;48.614;8.880;2023-06-24T02:31:44;12.90;99.90
12634;DHT22;6382;48.614;8.880;2023-06-24T02:34:11;12.20;99.90
12634;DHT22;6382;48.614;8.880;2023-06-24T02:36:39;12.20;99.90
12634;DHT22;6382;48.614;8.880;2023-06-24T02:39:06;12.10;99.90
12634;DHT22;6382;48.614;8.880;2023-06-24T02:41:32;13.30;99.90
12634;DHT22;6382;48.614;8.880;2023-06-24T02:43:59;12.00;99.90
12634;DHT22;6382;48.614;8.880;2023-06-24T02:46:26;13.00;99.90
12634;DHT22;6382;48.614;8.880;2023-06-24T02:48:56;13.40;99.90
12634;DHT22;6382;48.614;8.880;2023-06-24T02:51:23;11.90;99.90
12634;DHT22;6382;48.614;8.880;2023-06-24T02:53:50;13.60;99.90
12634;DHT22;6382;48.614;8.880;2023-06-24T02:56:17;13.80;99.90
12634;DHT22;6382;48.614;8.880;2023-06-24T02:58:50;12.00;99.90
12634;DHT22;6382;48.614;8.880;2023-06-24T03:01:19;13.10;99.90
12634;DHT22;6382;48.614;8.880;2023-06-24T03:03:54;13.50;99.90
12634;DHT22;6382;48.614;8.880;2023-06-24T03:06:21;12.00;99.90
12634;DHT22;6382;48.614;8.880;2023-06-24T03:08:49;12.70;99.90
12634;DHT22;6382;48.614;8.880;2023-06-24T03:11:16;11.90;99.90
12634;DHT22;6382;48.614;8.880;2023-06-24T03:13:43;12.80;99.90
12634;DHT22;6382;48.614;8.880;2023-06-24T03:16:10;11.80;99.90
12634;DHT22;6382;48.614;8.880;2023-06-24T03:18:40;13.70;99.90
12634;DHT22;6382;48.614;8.880;2023-06-24T03:21:07;12.60;99.90
12634;DHT22;6382;48.614;8.880;2023-06-24T03:23:34;12.80;99.90
12634;DHT22;6382;48.614;8.880;2023-06-24T03:26:01;14.70;99.90
12634;DHT22;6382;48.614;8.880;2023-06-24T03:28:30;13.10;99.90
12634;DHT22;6382;48.614;8.880;2023-06-24T03:30:57;13.10;99.90
12634;DHT22;6382;48.614;8.880;2023-06-24T03:33:24;13.80;99.90
12634;DHT22;6382;48.614;8.880;2023-06-24T03:35:53;14.40;99.90
12634;DHT22;6382;48.614;8.880;2023-06-24T03:38:21;15.00;99.90
12634;DHT22;6382;48.614;8.880;2023-06-24T03:40:48;14.70;99.90
12634;DHT22;6382;48.614;8.880;2023-06-24T03:43:15;13.40;99.90
12634;DHT22;6382;48.614;8.880;2023-06-24T03:45:41;15.20;99.90
12634;DHT22;6382;48.614;8.880;2023-06-24T03:48:08;13.20;99.90
12634;DHT22;6382;48.614;8.880;2023-06-24T03:50:35;13.00;99.90
12634;DHT22;6382;48.614;8.880;2023-06-24T03:53:03;13.90;99.90
12634;DHT22;6382;48.614;8.880;2023-06-24T03:55:30;14.70;99.90
12634;DHT22;6382;48.614;8.880;2023-06-24T03:57:58;13.90;99.90
12634;DHT22;6382;48.614;8.880;2023-06-24T04:00:24;15.80;99.90
12634;DHT22;6382;48.614;8.880;2023-06-24T04:02:52;15.00;99.90
12634;DHT22;6382;48.614;8.880;2023-06-24T04:05:20;13.90;99.90
12634;DHT22;6382;48.614;8.880;2023-06-24T04:07:48;15.00;99.90
12634;DHT22;6382;48.614;8.880;2023-06-24T04:10:18;14.20;99.90
12634;DHT22;6382;48.614;8.880;2023-06-24T04:12:45;14.90;99.90
12634;DHT22;6382;48.614;8.880;2023-06-24T04:15:12;16.60;99.90
12634;DHT22;6382;48.614;8.880;2023-06-24T04:17:39;15.70;99.90
12634;DHT22;6382;48.614;8.880;2023-06-24T04:20:06;16.40;99.90
12634;DHT22;6382;48.614;8.880;2023-06-24T04:22:40;16.90;99.90
12634;DHT22;6382;48.614;8.880;2023-06-24T04:25:07;17.60;99.90
12634;DHT22;6382;48.614;8.880;2023-06-24T04:27:34;18.50;99.90
12634;DHT22;6382;48.614;8.880;2023-06-24T04:30:02;19.10;99.90
12634;DHT22;6382;48.614;8.880;2023-06-24T04:32:30;19.20;99.90
12634;DHT22;6382;48.614;8.880;2023-06-24T04:35:00;19.20;99.90
12634;DHT22;6382;48.614;8.880;2023-06-24T04:37:31;19.20;99.90
12634;DHT22;6382;48.614;8.880;2023-06-24T04:39:58;20.90;99.90
12634;DHT22;6382;48.614;8.880;2023-06-24T04:42:25;19.80;99.90
12634;DHT22;6382;48.614;8.880;2023-06-24T04:44:51;18.80;99.90
12634;DHT22;6382;48.614;8.880;2023-06-24T04:47:18;18.30;99.90
12634;DHT22;6382;48.614;8.880;2023-06-24T04:49:45;18.60;99.90
12634;DHT22;6382;48.614;8.880;2023-06-24T04:52:12;17.50;99.90
12634;DHT22;6382;48.614;8.880;2023-06-24T04:54:39;17.30;99.90
12634;DHT22;6382;48.614;8.880;2023-06-24T04:57:07;18.00;99.90
12634;DHT22;6382;48.614;8.880;2023-06-24T04:59:35;16.90;99.90
12634;DHT22;6382;48.614;8.880;2023-06-24T05:02:03;18.50;99.90
12634;DHT22;6382;48.614;8.880;2023-06-24T05:04:29;16.50;99.90
12634;DHT22;6382;48.614;8.880;2023-06-24T05:06:56;16.30;99.90
12634;DHT22;6382;48.614;8.880;2023-06-24T05:09:23;16.40;99.90
12634;DHT22;6382;48.614;8.880;2023-06-24T05:11:50;17.00;99.90
12634;DHT22;6382;48.614;8.880;2023-06-24T05:14:16;17.80;99.90
12634;DHT22;6382;48.614;8.880;2023-06-24T05:16:43;18.90;99.90
12634;DHT22;6382;48.614;8.880;2023-06-24T05:19:11;19.70;99.90
12634;DHT22;6382;48.614;8.880;2023-06-24T05:21:38;20.30;99.90
12634;DHT22;6382;48.614;8.880;2023-06-24T05:24:05;20.80;99.90
12634;DHT22;6382;48.614;8.880;2023-06-24T05:26:32;20.90;99.90
12634;DHT22;6382;48.614;8.880;2023-06-24T05:28:59;20.90;99.90
12634;DHT22;6382;48.614;8.880;2023-06-24T05:31:26;20.60;99.90
12634;DHT22;6382;48.614;8.880;2023-06-24T05:33:52;20.00;99.90
12634;DHT22;6382;48.614;8.880;2023-06-24T05:36:19;19.60;99.90
12634;DHT22;6382;48.614;8.880;2023-06-24T05:38:46;19.70;99.90
12634;DHT22;6382;48.614;8.880;2023-06-24T05:41:15;19.30;99.90
12634;DHT22;6382;48.614;8.880;2023-06-24T05:43:42;19.20;99.90
12634;DHT22;6382;48.614;8.880;2023-06-24T05:46:09;19.90;99.90
12634;DHT22;6382;48.614;8.880;2023-06-24T05:48:36;18.50;99.90
12634;DHT22;6382;48.614;8.880;2023-06-24T05:51:03;19.10;99.90
12634;DHT22;6382;48.614;8.880;2023-06-24T05:53:30;18.70;99.90
12634;DHT22;6382;48.614;8.880;2023-06-24T05:55:56;18.60;99.90
12634;DHT22;6382;48.614;8.880;2023-06-24T05:58:23;18.50;99.90
12634;DHT22;6382;48.614;8.880;2023-06-24T06:00:50;18.40;99.90
12634;DHT22;6382;48.614;8.880;2023-06-24T06:03:17;18.30;99.90
12634;DHT22;6382;48.614;8.880;2023-06-24T06:05:44;18.40;99.90
12634;DHT22;6382;48.614;8.880;2023-06-24T06:08:10;19.60;99.90
12634;DHT22;6382;48.614;8.880;2023-06-24T06:10:37;18.80;99.90
12634;DHT22;6382;48.614;8.880;2023-06-24T06:13:04;18.40;99.90
12634;DHT22;6382;48.614;8.880;2023-06-24T06:15:31;18.80;99.90
12634;DHT22;6382;48.614;8.880;2023-06-24T06:17:58;18.20;99.90
12634;DHT22;6382;48.614;8.880;2023-06-24T06:20:24;18.90;99.90
12634;DHT22;6382;48.614;8.880;2023-06-24T06:22:52;18.40;99.90
12634;DHT22;6382;48.614;8.880;2023-06-24T06:25:18;18.40;99.90
12634;DHT22;6382;48.614;8.880;2023-06-24T06:27:45;18.40;99.90
12634;DHT22;6382;48.614;8.880;2023-06-24T06:30:12;18.40;99.90
12634;DHT22;6382;48.614;8.880;2023-06-24T06:32:39;18.50;99.90
12634;DHT22;6382;48.614;8.880;2023-06-24T06:35:06;18.50;99.90
12634;DHT22;6382;48.614;8.880;2023-06-24T06:37:33;18.60;99.90
12634;DHT22;6382;48.614;8.880;2023-06-24T06:40:00;18.70;99.90
12634;DHT22;6382;48.614;8.880;2023-06-24T06:42:27;18.70;99.90
12634;DHT22;6382;48.614;8.880;2023-06-24T06:44:54;18.80;99.90
12634;DHT22;6382;48.614;8.880;2023-06-24T06:47:20;18.80;99.90
12634;DHT22;6382;48.614;8.880;2023-06-24T06:49:47;18.80;99.90
12634;DHT22;6382;48.614;8.880;2023-06-24T06:52:14;19.10;99.90
12634;DHT22;6382;48.614;8.880;2023-06-24T06:54:43;19.00;99.90
12634;DHT22;6382;48.614;8.880;2023-06-24T06:57:10;20.80;99.90
12634;DHT22;6382;48.614;8.880;2023-06-24T06:59:37;19.10;99.90
12634;DHT22;6382;48.614;8.880;2023-06-24T07:02:04;19.10;99.90
12634;DHT22;6382;48.614;8.880;2023-06-24T07:04:30;19.20;99.90
12634;DHT22;6382;48.614;8.880;2023-06-24T07:06:57;19.30;99.90
12634;DHT22;6382;48.614;8.880;2023-06-24T07:09:24;19.30;99.90
12634;DHT22;6382;48.614;8.880;2023-06-24T07:11:51;19.30;99.90
12634;DHT22;6382;48.614;8.880;2023-06-24T07:14:18;20.60;99.90
12634;DHT22;6382;48.614;8.880;2023-06-24T07:16:44;19.50;99.90
12634;DHT22;6382;48.614;8.880;2023-06-24T07:19:11;19.60;99.90
12634;DHT22;6382;48.614;8.880;2023-06-24T07:21:38;21.80;99.90
12634;DHT22;6382;48.614;8.880;2023-06-24T07:24:05;19.60;99.90
12634;DHT22;6382;48.614;8.880;2023-06-24T07:26:32;19.60;99.90
12634;DHT22;6382;48.614;8.880;2023-06-24T07:28:59;19.60;99.90
12634;DHT22;6382;48.614;8.880;2023-06-24T07:31:35;19.70;99.90
12634;DHT22;6382;48.614;8.880;2023-06-24T07:34:02;20.20;99.90
12634;DHT22;6382;48.614;8.880;2023-06-24T07:36:29;19.90;99.90
12634;DHT22;6382;48.614;8.880;2023-06-24T07:38:56;20.00;99.90
12634;DHT22;6382;48.614;8.880;2023-06-24T07:41:23;20.10;99.90
12634;DHT22;6382;48.614;8.880;2023-06-24T07:43:49;21.20;99.90
12634;DHT22;6382;48.614;8.880;2023-06-24T07:46:16;20.20;99.90
12634;DHT22;6382;48.614;8.880;2023-06-24T07:48:43;20.30;99.90
12634;DHT22;6382;48.614;8.880;2023-06-24T07:51:10;20.30;99.90
12634;DHT22;6382;48.614;8.880;2023-06-24T07:53:37;20.40;99.90
12634;DHT22;6382;48.614;8.880;2023-06-24T07:56:04;20.30;99.90
12634;DHT22;6382;48.614;8.880;2023-06-24T07:58:31;20.30;99.90
12634;DHT22;6382;48.614;8.880;2023-06-24T08:00:58;20.40;99.90
12634;DHT22;6382;48.614;8.880;2023-06-24T08:03:24;20.50;99.90
12634;DHT22;6382;48.614;8.880;2023-06-24T08:05:52;20.50;99.90
12634;DHT22;6382;48.614;8.880;2023-06-24T08:08:18;22.20;99.90
12634;DHT22;6382;48.614;8.880;2023-06-24T08:10:47;20.70;99.90
12634;DHT22;6382;48.614;8.880;2023-06-24T08:13:14;20.80;99.90
12634;DHT22;6382;48.614;8.880;2023-06-24T08:15:40;20.90;99.90
12634;DHT22;6382;48.614;8.880;2023-06-24T08:18:08;21.00;99.90
12634;DHT22;6382;48.614;8.880;2023-06-24T08:20:35;21.00;99.90
12634;DHT22;6382;48.614;8.880;2023-06-24T08:23:02;21.00;99.90
12634;DHT22;6382;48.614;8.880;2023-06-24T08:25:29;21.10;99.90
12634;DHT22;6382;48.614;8.880;2023-06-24T08:27:57;23.30;99.90
12634;DHT22;6382;48.614;8.880;2023-06-24T08:30:24;21.20;99.90
12634;DHT22;6382;48.614;8.880;2023-06-24T08:32:51;21.20;99.90
12634;DHT22;6382;48.614;8.880;2023-06-24T08:35:18;21.30;99.90
12634;DHT22;6382;48.614;8.880;2023-06-24T08:37:45;21.40;99.90
12634;DHT22;6382;48.614;8.880;2023-06-24T08:40:12;21.50;99.90
12634;DHT22;6382;48.614;8.880;2023-06-24T08:42:38;21.50;99.90
12634;DHT22;6382;48.614;8.880;2023-06-24T08:45:05;21.60;99.90
12634;DHT22;6382;48.614;8.880;2023-06-24T08:47:32;21.40;99.90
12634;DHT22;6382;48.614;8.880;2023-06-24T08:50:01;21.50;99.90
12634;DHT22;6382;48.614;8.880;2023-06-24T08:52:31;21.60;99.90
12634;DHT22;6382;48.614;8.880;2023-06-24T08:54:59;23.00;99.90
12634;DHT22;6382;48.614;8.880;2023-06-24T08:57:26;21.90;99.90
12634;DHT22;6382;48.614;8.880;2023-06-24T08:59:53;21.90;99.90
12634;DHT22;6382;48.614;8.880;2023-06-24T09:02:20;21.90;99.90
12634;DHT22;6382;48.614;8.880;2023-06-24T09:04:47;23.30;99.90
12634;DHT22;6382;48.614;8.880;2023-06-24T09:07:14;22.10;99.90
12634;DHT22;6382;48.614;8.880;2023-06-24T09:09:49;24.20;99.90
12634;DHT22;6382;48.614;8.880;2023-06-24T09:12:16;22.30;99.90
12634;DHT22;6382;48.614;8.880;2023-06-24T09:14:49;22.50;99.90
12634;DHT22;6382;48.614;8.880;2023-06-24T09:17:17;22.60;99.90
12634;DHT22;6382;48.614;8.880;2023-06-24T09:19:44;22.60;99.70
12634;DHT22;6382;48.614;8.880;2023-06-24T09:22:10;24.40;99.90
12634;DHT22;6382;48.614;8.880;2023-06-24T09:24:44;22.70;99.90
12634;DHT22;6382;48.614;8.880;2023-06-24T09:27:16;24.80;99.90
12634;DHT22;6382;48.614;8.880;2023-06-24T09:29:46;24.40;99.80
12634;DHT22;6382;48.614;8.880;2023-06-24T09:32:14;23.00;99.30
12634;DHT22;6382;48.614;8.880;2023-06-24T09:34:41;22.90;99.90
12634;DHT22;6382;48.614;8.880;2023-06-24T09:37:08;23.10;99.90
12634;DHT22;6382;48.614;8.880;2023-06-24T09:39:36;23.30;99.50
12634;DHT22;6382;48.614;8.880;2023-06-24T09:42:04;24.50;99.90
12634;DHT22;6382;48.614;8.880;2023-06-24T09:44:31;23.20;98.10
12634;DHT22;6382;48.614;8.880;2023-06-24T09:46:58;24.10;98.70
12634;DHT22;6382;48.614;8.880;2023-06-24T09:49:25;23.60;99.90
12634;DHT22;6382;48.614;8.880;2023-06-24T09:51:57;23.80;96.30
12634;DHT22;6382;48.614;8.880;2023-06-24T09:54:25;20.90;94.00
12634;DHT22;6382;48.614;8.880;2023-06-24T09:56:54;23.80;94.30
12634;DHT22;6382;48.614;8.880;2023-06-24T09:59:21;23.80;94.10
12634;DHT22;6382;48.614;8.880;2023-06-24T10:01:49;23.80;93.70
12634;DHT22;6382;48.614;8.880;2023-06-24T10:04:17;23.80;94.60
12634;DHT22;6382;48.614;8.880;2023-06-24T10:06:44;23.50;94.50
12634;DHT22;6382;48.614;8.880;2023-06-24T10:09:11;23.50;94.30
12634;DHT22;6382;48.614;8.880;2023-06-24T10:11:43;23.20;95.40
12634;DHT22;6382;48.614;8.880;2023-06-24T10:14:10;23.30;94.80
12634;DHT22;6382;48.614;8.880;2023-06-24T10:16:37;23.50;95.10
12634;DHT22;6382;48.614;8.880;2023-06-24T10:19:04;23.60;94.40
12634;DHT22;6382;48.614;8.880;2023-06-24T10:24:35;23.50;93.80
12634;DHT22;6382;48.614;8.880;2023-06-24T10:27:03;23.80;94.90
12634;DHT22;6382;48.614;8.880;2023-06-24T10:29:30;23.90;93.80
12634;DHT22;6382;48.614;8.880;2023-06-24T10:31:57;24.00;94.30
12634;DHT22;6382;48.614;8.880;2023-06-24T10:34:28;24.40;93.90
12634;DHT22;6382;48.614;8.880;2023-06-24T10:36:56;24.30;93.30
12634;DHT22;6382;48.614;8.880;2023-06-24T10:44:59;24.60;93.70
12634;DHT22;6382;48.614;8.880;2023-06-24T10:47:29;24.90;93.50
12634;DHT22;6382;48.614;8.880;2023-06-24T10:49:56;25.30;95.20
12634;DHT22;6382;48.614;8.880;2023-06-24T10:52:23;25.60;93.20
12634;DHT22;6382;48.614;8.880;2023-06-24T10:54:51;25.70;92.20
12634;DHT22;6382;48.614;8.880;2023-06-24T10:57:25;25.30;92.10
12634;DHT22;6382;48.614;8.880;2023-06-24T10:59:53;25.40;92.50
12634;DHT22;6382;48.614;8.880;2023-06-24T11:02:21;25.50;91.90
12634;DHT22;6382;48.614;8.880;2023-06-24T11:04:49;25.70;92.70
12634;DHT22;6382;48.614;8.880;2023-06-24T11:07:16;25.50;91.50
12634;DHT22;6382;48.614;8.880;2023-06-24T11:12:17;25.00;91.20
12634;DHT22;6382;48.614;8.880;2023-06-24T11:14:44;24.90;91.90
12634;DHT22;6382;48.614;8.880;2023-06-24T11:17:11;24.80;90.70
12634;DHT22;6382;48.614;8.880;2023-06-24T11:19:38;24.70;91.50
12634;DHT22;6382;48.614;8.880;2023-06-24T11:22:07;24.80;90.90
12634;DHT22;6382;48.614;8.880;2023-06-24T11:24:34;25.00;90.30
12634;DHT22;6382;48.614;8.880;2023-06-24T11:27:01;25.50;90.50
12634;DHT22;6382;48.614;8.880;2023-06-24T11:29:30;25.10;88.90
12634;DHT22;6382;48.614;8.880;2023-06-24T11:31:58;25.00;88.90
12634;DHT22;6382;48.614;8.880;2023-06-24T11:34:25;25.00;89.50
12634;DHT22;6382;48.614;8.880;2023-06-24T11:36:52;25.10;89.10
12634;DHT22;6382;48.614;8.880;2023-06-24T11:39:22;26.00;89.70
12634;DHT22;6382;48.614;8.880;2023-06-24T11:41:50;25.00;87.80
12634;DHT22;6382;48.614;8.880;2023-06-24T11:44:20;25.00;89.70
12634;DHT22;6382;48.614;8.880;2023-06-24T11:46:47;24.70;88.50
12634;DHT22;6382;48.614;8.880;2023-06-24T11:49:14;24.60;88.70
12634;DHT22;6382;48.614;8.880;2023-06-24T11:51:48;24.60;90.20
12634;DHT22;6382;48.614;8.880;2023-06-24T11:54:19;24.80;91.60
12634;DHT22;6382;48.614;8.880;2023-06-24T11:56:52;24.90;92.50
12634;DHT22;6382;48.614;8.880;2023-06-24T11:59:20;25.10;92.00
12634;DHT22;6382;48.614;8.880;2023-06-24T12:01:52;25.40;90.40
12634;DHT22;6382;48.614;8.880;2023-06-24T12:04:19;25.60;92.10
12634;DHT22;6382;48.614;8.880;2023-06-24T12:06:46;25.80;89.10
12634;DHT22;6382;48.614;8.880;2023-06-24T12:09:13;26.10;87.60
12634;DHT22;6382;48.614;8.880;2023-06-24T12:11:39;25.90;85.70
12634;DHT22;6382;48.614;8.880;2023-06-24T12:14:06;25.90;85.20
12634;DHT22;6382;48.614;8.880;2023-06-24T12:16:33;25.60;85.30
12634;DHT22;6382;48.614;8.880;2023-06-24T12:19:00;26.70;85.80
12634;DHT22;6382;48.614;8.880;2023-06-24T12:21:26;25.30;85.40
12634;DHT22;6382;48.614;8.880;2023-06-24T12:23:53;25.30;87.50
12634;DHT22;6382;48.614;8.880;2023-06-24T12:26:20;25.20;86.90
12634;DHT22;6382;48.614;8.880;2023-06-24T12:28:47;25.50;86.90
12634;DHT22;6382;48.614;8.880;2023-06-24T12:31:14;26.00;87.20
12634;DHT22;6382;48.614;8.880;2023-06-24T12:33:41;25.80;86.30
12634;DHT22;6382;48.614;8.880;2023-06-24T12:36:07;26.90;86.90
12634;DHT22;6382;48.614;8.880;2023-06-24T12:38:34;25.70;85.20
12634;DHT22;6382;48.614;8.880;2023-06-24T12:41:03;25.70;89.80
12634;DHT22;6382;48.614;8.880;2023-06-24T12:43:30;25.70;88.10
12634;DHT22;6382;48.614;8.880;2023-06-24T12:45:57;25.70;84.10
12634;DHT22;6382;48.614;8.880;2023-06-24T12:48:24;25.80;87.80
12634;DHT22;6382;48.614;8.880;2023-06-24T12:50:51;25.80;85.50
12634;DHT22;6382;48.614;8.880;2023-06-24T12:53:21;25.80;84.70
12634;DHT22;6382;48.614;8.880;2023-06-24T12:55:50;25.70;87.80
12634;DHT22;6382;48.614;8.880;2023-06-24T12:58:21;25.90;88.40
12634;DHT22;6382;48.614;8.880;2023-06-24T13:00:48;25.90;85.20
12634;DHT22;6382;48.614;8.880;2023-06-24T13:03:15;26.00;84.20
12634;DHT22;6382;48.614;8.880;2023-06-24T13:05:42;26.00;82.70
12634;DHT22;6382;48.614;8.880;2023-06-24T13:08:09;26.00;89.10
12634;DHT22;6382;48.614;8.880;2023-06-24T13:10:38;26.00;83.20
12634;DHT22;6382;48.614;8.880;2023-06-24T13:13:08;26.60;84.50
12634;DHT22;6382;48.614;8.880;2023-06-24T13:15:35;26.90;83.00
12634;DHT22;6382;48.614;8.880;2023-06-24T13:18:01;25.70;82.10
12634;DHT22;6382;48.614;8.880;2023-06-24T13:20:29;25.90;81.10
12634;DHT22;6382;48.614;8.880;2023-06-24T13:22:56;25.90;82.30
12634;DHT22;6382;48.614;8.880;2023-06-24T13:25:23;25.90;78.90
12634;DHT22;6382;48.614;8.880;2023-06-24T13:27:50;25.70;79.00
12634;DHT22;6382;48.614;8.880;2023-06-24T13:30:16;25.60;79.00
12634;DHT22;6382;48.614;8.880;2023-06-24T13:32:43;25.60;80.60
12634;DHT22;6382;48.614;8.880;2023-06-24T13:35:10;25.70;82.10
12634;DHT22;6382;48.614;8.880;2023-06-24T13:37:38;25.80;85.00
12634;DHT22;6382;48.614;8.880;2023-06-24T13:40:05;25.80;77.60
12634;DHT22;6382;48.614;8.880;2023-06-24T13:42:33;25.80;77.90
12634;DHT22;6382;48.614;8.880;2023-06-24T13:44:59;25.80;79.60
12634;DHT22;6382;48.614;8.880;2023-06-24T13:47:27;25.90;78.20
12634;DHT22;6382;48.614;8.880;2023-06-24T13:49:53;25.90;80.00
12634;DHT22;6382;48.614;8.880;2023-06-24T13:52:20;25.70;78.20
12634;DHT22;6382;48.614;8.880;2023-06-24T13:54:47;26.00;78.20
12634;DHT22;6382;48.614;8.880;2023-06-24T13:57:14;26.00;81.00
12634;DHT22;6382;48.614;8.880;2023-06-24T13:59:42;26.00;78.10
12634;DHT22;6382;48.614;8.880;2023-06-24T14:02:09;26.00;76.60
12634;DHT22;6382;48.614;8.880;2023-06-24T14:04:38;26.10;76.30
12634;DHT22;6382;48.614;8.880;2023-06-24T14:07:08;26.10;77.60
12634;DHT22;6382;48.614;8.880;2023-06-24T14:09:37;26.30;76.90
12634;DHT22;6382;48.614;8.880;2023-06-24T14:12:06;26.10;80.20
12634;DHT22;6382;48.614;8.880;2023-06-24T14:14:34;26.20;76.10
12634;DHT22;6382;48.614;8.880;2023-06-24T14:17:02;26.10;80.40
12634;DHT22;6382;48.614;8.880;2023-06-24T14:19:28;26.20;77.40
12634;DHT22;6382;48.614;8.880;2023-06-24T14:21:55;26.10;74.80
12634;DHT22;6382;48.614;8.880;2023-06-24T14:24:24;26.00;76.00
12634;DHT22;6382;48.614;8.880;2023-06-24T14:26:50;26.10;78.10
12634;DHT22;6382;48.614;8.880;2023-06-24T14:29:17;26.10;75.80
12634;DHT22;6382;48.614;8.880;2023-06-24T14:31:44;26.20;79.80
12634;DHT22;6382;48.614;8.880;2023-06-24T14:34:11;26.20;79.50
12634;DHT22;6382;48.614;8.880;2023-06-24T14:36:38;26.20;82.20
12634;DHT22;6382;48.614;8.880;2023-06-24T14:39:05;26.40;78.10
12634;DHT22;6382;48.614;8.880;2023-06-24T14:41:32;26.50;77.60
12634;DHT22;6382;48.614;8.880;2023-06-24T14:43:59;26.60;76.60
12634;DHT22;6382;48.614;8.880;2023-06-24T14:46:26;26.60;74.60
12634;DHT22;6382;48.614;8.880;2023-06-24T14:48:53;26.50;75.40
12634;DHT22;6382;48.614;8.880;2023-06-24T14:51:20;26.40;75.20
12634;DHT22;6382;48.614;8.880;2023-06-24T14:53:47;26.60;75.80
12634;DHT22;6382;48.614;8.880;2023-06-24T14:56:13;26.60;77.90
12634;DHT22;6382;48.614;8.880;2023-06-24T14:58:40;26.60;76.30
12634;DHT22;6382;48.614;8.880;2023-06-24T15:01:07;26.60;77.70
12634;DHT22;6382;48.614;8.880;2023-06-24T15:03:34;26.50;75.00
12634;DHT22;6382;48.614;8.880;2023-06-24T15:06:01;26.60;75.00
12634;DHT22;6382;48.614;8.880;2023-06-24T15:08:28;26.50;78.40
12634;DHT22;6382;48.614;8.880;2023-06-24T15:10:54;26.50;74.20
12634;DHT22;6382;48.614;8.880;2023-06-24T15:13:21;26.40;78.30
12634;DHT22;6382;48.614;8.880;2023-06-24T15:15:48;26.40;78.90
12634;DHT22;6382;48.614;8.880;2023-06-24T15:18:16;26.40;78.00
12634;DHT22;6382;48.614;8.880;2023-06-24T15:20:43;26.40;74.20
12634;DHT22;6382;48.614;8.880;2023-06-24T15:23:09;26.40;74.30
12634;DHT22;6382;48.614;8.880;2023-06-24T15:25:36;26.50;78.40
12634;DHT22;6382;48.614;8.880;2023-06-24T15:28:03;26.30;77.50
12634;DHT22;6382;48.614;8.880;2023-06-24T15:30:30;26.30;76.20
12634;DHT22;6382;48.614;8.880;2023-06-24T15:32:56;26.40;75.00
12634;DHT22;6382;48.614;8.880;2023-06-24T15:35:23;26.40;74.50
12634;DHT22;6382;48.614;8.880;2023-06-24T15:37:50;26.40;73.60
12634;DHT22;6382;48.614;8.880;2023-06-24T15:40:17;26.50;74.70
12634;DHT22;6382;48.614;8.880;2023-06-24T15:42:44;26.40;74.60
12634;DHT22;6382;48.614;8.880;2023-06-24T15:45:11;26.50;73.80
12634;DHT22;6382;48.614;8.880;2023-06-24T15:47:38;26.40;73.00
12634;DHT22;6382;48.614;8.880;2023-06-24T15:50:05;26.30;74.40
12634;DHT22;6382;48.614;8.880;2023-06-24T15:52:31;26.30;78.20
12634;DHT22;6382;48.614;8.880;2023-06-24T15:54:58;26.40;78.50
12634;DHT22;6382;48.614;8.880;2023-06-24T15:57:25;26.50;78.60
12634;DHT22;6382;48.614;8.880;2023-06-24T15:59:52;26.50;78.80
12634;DHT22;6382;48.614;8.880;2023-06-24T16:02:19;26.50;75.10
12634;DHT22;6382;48.614;8.880;2023-06-24T16:04:47;26.50;74.50
12634;DHT22;6382;48.614;8.880;2023-06-24T16:07:14;26.60;79.40